Time;durP1;ratioP1;P1;durP2;ratioP2;P2;SDS_P1;SDS_P2;PMS_P1;PMS_P2;Temp;Humidity;BMP_temperature;BMP_pressure;BME280_temperature;BME280_humidity;BME280_pressure;Samples;Min_cycle;Max_cycle;Signal;HPM_P1;HPM_P2
2022/02/03 00:00:51;;;;;;;0.45;0.45;;;19.20;99.90;;;;;;5054873;28;20056;-61
2022/02/03 00:11:15;;;;;;;0.55;0.55;;;19.10;99.90;;;;;;5060132;28;20052;-61
2022/02/03 00:22:07;;;;;;;0.85;0.85;;;19.00;99.90;;;;;;5057790;28;20059;-61
2022/02/03 00:25:21;;;;;;;0.70;0.70;;;19.00;99.90;;;;;;5063245;28;20060;-63
2022/02/03 00:28:10;;;;;;;0.60;0.60;;;19.00;99.90;;;;;;5063720;28;20060;-62
2022/02/03 00:49:38;;;;;;;0.63;0.63;;;19.00;99.90;;;;;;5066164;28;20045;-59
2022/02/03 00:52:06;;;;;;;0.60;0.60;;;19.10;99.90;;;;;;5062627;28;20063;-60
2022/02/03 00:54:34;;;;;;;0.38;0.38;;;19.00;99.90;;;;;;5067435;28;20048;-61
2022/02/03 00:57:03;;;;;;;;;;;19.00;99.90;;;;;;5064496;28;20439;-60
2022/02/03 00:59:37;;;;;;;2.65;1.25;;;19.00;99.90;;;;;;5063900;28;19925;-63
2022/02/03 01:02:14;;;;;;;2.30;1.17;;;19.00;99.90;;;;;;5066336;28;20044;-60
2022/02/03 01:04:42;;;;;;;;;;;19.00;99.90;;;;;;5051817;28;20057;-63
2022/02/03 01:07:11;;;;;;;;;;;19.00;99.90;;;;;;5062619;28;20432;-61
2022/02/03 01:09:46;;;;;;;0.40;0.40;;;19.00;99.90;;;;;;5066792;28;19931;-63
2022/02/03 01:12:27;;;;;;;0.55;0.55;;;19.00;99.90;;;;;;5052523;28;20040;-63
2022/02/03 01:15:09;;;;;;;1.45;1.20;;;19.00;99.90;;;;;;5054005;28;20049;-61
2022/02/03 01:45:07;;;;;;;0.50;0.50;;;18.80;99.90;;;;;;5022319;28;20056;-62
2022/02/03 01:52:48;;;;;;;1.45;1.08;;;18.80;99.90;;;;;;5051226;28;20523;-63
2022/02/03 01:55:19;;;;;;;0.82;0.80;;;18.80;99.90;;;;;;5054828;28;20055;-64
2022/02/03 01:57:52;;;;;;;1.85;1.40;;;18.80;99.90;;;;;;5056977;28;20405;-64
2022/02/03 02:00:21;;;;;;;0.68;0.68;;;18.80;99.90;;;;;;5059856;28;20052;-63
2022/02/03 02:03:15;;;;;;;0.75;0.75;;;18.80;99.90;;;;;;5057220;28;20071;-59
2022/02/03 02:06:07;;;;;;;3.67;1.88;;;18.80;99.90;;;;;;5068372;28;20048;-61
2022/02/03 02:08:40;;;;;;;0.38;0.38;;;18.80;99.90;;;;;;5065759;28;20049;-62
2022/02/03 02:11:26;;;;;;;0.55;0.55;;;18.80;99.90;;;;;;5055272;28;20052;-62
2022/02/03 02:14:28;;;;;;;0.40;0.40;;;18.80;99.90;;;;;;5050460;28;20045;-61
2022/02/03 02:19:59;;;;;;;0.40;0.40;;;18.80;99.90;;;;;;5059589;28;20335;-62
2022/02/03 02:39:52;;;;;;;0.40;0.40;;;18.70;99.90;;;;;;5062404;28;20118;-62
2022/02/03 02:45:05;;;;;;;0.40;0.40;;;18.70;99.90;;;;;;5051248;28;20373;-61
2022/02/03 02:47:49;;;;;;;1.13;1.00;;;18.70;99.90;;;;;;5043539;28;20048;-60
2022/02/03 02:50:25;;;;;;;0.70;0.70;;;18.70;99.90;;;;;;5064390;28;20053;-62
2022/02/03 02:53:17;;;;;;;0.55;0.55;;;18.70;99.90;;;;;;5065027;28;20052;-61
2022/02/03 02:56:11;;;;;;;0.70;0.70;;;18.60;99.90;;;;;;5057190;28;20060;-62
2022/02/03 03:35:39;;;;;;;0.52;0.52;;;18.60;99.90;;;;;;5034738;28;20052;-61
2022/02/03 03:38:08;;;;;;;0.55;0.55;;;18.70;99.90;;;;;;5065612;28;20044;-63
2022/02/03 03:40:40;;;;;;;1.23;1.08;;;18.70;99.90;;;;;;5054964;28;20605;-63
2022/02/03 03:43:11;;;;;;;0.73;0.73;;;18.60;99.90;;;;;;5074968;28;20060;-64
2022/02/03 03:45:46;;;;;;;0.80;0.80;;;18.50;99.90;;;;;;5061139;28;20052;-64
2022/02/03 03:48:19;;;;;;;0.50;0.50;;;18.50;99.90;;;;;;5070495;28;20056;-61
2022/02/03 03:50:50;;;;;;;0.68;0.68;;;18.50;99.90;;;;;;5063549;28;20143;-64
2022/02/03 03:53:28;;;;;;;0.50;0.50;;;18.50;99.90;;;;;;5069336;28;20134;-62
2022/02/03 03:56:18;;;;;;;0.35;0.35;;;18.50;99.90;;;;;;5056877;28;20059;-61
2022/02/03 03:59:27;;;;;;;0.65;0.50;;;18.40;99.90;;;;;;5064072;28;20056;-64
2022/02/03 04:32:02;;;;;;;1.27;0.68;;;18.50;99.90;;;;;;5051897;28;20063;-61
2022/02/03 05:09:51;;;;;;;0.45;0.45;;;19.00;99.90;;;;;;5069150;28;20048;-62
2022/02/03 05:42:59;;;;;;;0.40;0.40;;;20.50;99.90;;;;;;5056369;28;20759;-60
2022/02/03 06:04:44;;;;;;;0.60;0.60;;;21.50;99.90;;;;;;5073748;28;20430;-64
2022/02/03 06:14:57;;;;;;;0.30;0.30;;;21.20;99.90;;;;;;5046921;28;20044;-61
2022/02/03 06:17:33;;;;;;;0.60;0.60;;;21.20;99.90;;;;;;5052676;28;20048;-63
2022/02/03 06:22:54;;;;;;;1.10;1.05;;;21.20;99.90;;;;;;5052197;28;20071;-61
2022/02/03 06:28:09;;;;;;;1.63;1.08;;;19.20;99.90;;;;;;5057551;28;20048;-58
2022/02/03 06:30:36;;;;;;;6.70;2.70;;;18.60;99.90;;;;;;5044944;28;20095;-60
2022/02/03 06:33:05;;;;;;;1.10;1.05;;;18.60;99.90;;;;;;5057575;28;20503;-61
2022/02/03 06:35:32;;;;;;;2.80;1.75;;;18.90;99.90;;;;;;5066495;28;20051;-60
2022/02/03 06:38:00;;;;;;;3.17;1.77;;;19.30;99.90;;;;;;5046963;28;20534;-59
2022/02/03 06:40:27;;;;;;;0.90;0.90;;;19.60;99.90;;;;;;5059982;28;20068;-60
2022/02/03 06:42:57;;;;;;;1.45;1.35;;;19.80;99.60;;;;;;5067253;28;20055;-58
2022/02/03 06:45:37;;;;;;;3.47;1.67;;;20.10;99.70;;;;;;5047591;28;20073;-59
2022/02/03 06:48:11;;;;;;;1.40;1.30;;;20.30;99.80;;;;;;5068179;28;20048;-59
2022/02/03 06:50:44;;;;;;;1.17;1.02;;;20.50;99.90;;;;;;5068361;28;20451;-59
2022/02/03 06:53:19;;;;;;;0.60;0.60;;;20.60;99.90;;;;;;5067938;28;20048;-61
2022/02/03 06:58:47;;;;;;;1.60;1.50;;;20.70;99.90;;;;;;5059750;28;20525;-61
2022/02/03 07:01:23;;;;;;;2.05;1.20;;;20.80;99.90;;;;;;5046569;28;20044;-64
2022/02/03 07:03:56;;;;;;;0.45;0.45;;;20.90;99.90;;;;;;5071952;28;20507;-61
2022/02/03 07:06:23;;;;;;;1.98;1.65;;;20.90;99.90;;;;;;5072157;28;20078;-60
2022/02/03 07:08:52;;;;;;;1.05;0.98;;;21.00;99.90;;;;;;5068082;28;20048;-61
2022/02/03 07:11:23;;;;;;;0.40;0.40;;;21.10;99.90;;;;;;5064701;28;20408;-60
2022/02/03 07:13:50;;;;;;;1.23;1.00;;;21.20;99.90;;;;;;5068725;28;20411;-60
2022/02/03 07:16:17;;;;;;;4.85;2.63;;;21.20;99.90;;;;;;5066929;28;20044;-59
2022/02/03 07:18:45;;;;;;;0.63;0.63;;;21.20;99.90;;;;;;5055266;28;20735;-67
2022/02/03 07:21:13;;;;;;;0.90;0.90;;;21.20;99.90;;;;;;5056379;28;20048;-59
2022/02/03 07:23:41;;;;;;;0.90;0.75;;;21.30;99.90;;;;;;5069451;28;20045;-58
2022/02/03 07:26:08;;;;;;;;;;;21.30;99.90;;;;;;5063807;28;20045;-63
2022/02/03 07:28:36;;;;;;;1.05;1.05;;;21.20;99.90;;;;;;5063038;28;19928;-59
2022/02/03 07:31:03;;;;;;;0.63;0.63;;;21.20;99.90;;;;;;5068122;28;20055;-59
2022/02/03 07:33:32;;;;;;;0.60;0.60;;;21.20;99.90;;;;;;5062013;28;20052;-62
2022/02/03 07:35:59;;;;;;;1.25;1.15;;;21.10;99.90;;;;;;5079560;28;20044;-65
2022/02/03 07:38:27;;;;;;;1.08;0.95;;;21.20;99.90;;;;;;5065042;28;20508;-60
2022/02/03 07:40:54;;;;;;;1.65;1.40;;;21.30;99.90;;;;;;5063206;28;20052;-63
2022/02/03 07:43:22;;;;;;;1.40;1.08;;;21.20;99.90;;;;;;5067161;28;20424;-63
2022/02/03 07:45:50;;;;;;;3.05;1.25;;;21.20;99.90;;;;;;5067869;28;20071;-66
2022/02/03 07:48:20;;;;;;;2.70;2.00;;;21.20;99.90;;;;;;5068401;28;20052;-67
2022/02/03 07:50:47;;;;;;;4.75;3.13;;;21.20;99.90;;;;;;5053044;28;20064;-60
2022/02/03 07:53:15;;;;;;;1.55;1.33;;;21.20;99.90;;;;;;5065178;28;20048;-60
2022/02/03 07:55:42;;;;;;;3.05;1.92;;;21.20;99.90;;;;;;5067968;28;20459;-60
2022/02/03 07:58:10;;;;;;;1.00;1.00;;;21.30;99.90;;;;;;5072979;28;20504;-62
2022/02/03 08:00:37;;;;;;;0.77;0.77;;;21.20;99.90;;;;;;5079451;28;20655;-62
2022/02/03 08:03:14;;;;;;;0.88;0.88;;;21.20;99.90;;;;;;5067897;28;20395;-62
2022/02/03 08:05:48;;;;;;;2.05;1.48;;;21.20;99.90;;;;;;5069767;28;20044;-60
2022/02/03 08:08:24;;;;;;;0.60;0.60;;;21.20;99.90;;;;;;5062706;28;20480;-61
2022/02/03 08:10:59;;;;;;;0.90;0.90;;;21.20;99.90;;;;;;5066144;28;20048;-62
2022/02/03 08:13:36;;;;;;;9.98;1.90;;;21.20;99.90;;;;;;5075512;28;20043;-61
2022/02/03 08:18:39;;;;;;;0.68;0.55;;;21.10;99.90;;;;;;5062111;28;20420;-60
2022/02/03 08:21:10;;;;;;;1.17;0.98;;;21.10;99.90;;;;;;5067181;28;20047;-62
2022/02/03 08:28:57;;;;;;;1.38;1.05;;;21.20;99.90;;;;;;5066665;28;20048;-59
2022/02/03 08:31:37;;;;;;;0.88;0.88;;;21.20;99.90;;;;;;5069522;28;20044;-59
2022/02/03 08:34:05;;;;;;;0.65;0.65;;;21.20;99.90;;;;;;5065558;28;20075;-62
2022/02/03 08:36:38;;;;;;;5.05;2.78;;;21.20;99.90;;;;;;5064091;28;20056;-61
2022/02/03 08:39:09;;;;;;;0.70;0.70;;;21.10;99.90;;;;;;5067371;28;20457;-58
2022/02/03 08:41:36;;;;;;;2.63;1.77;;;21.10;99.90;;;;;;5066117;28;20127;-59
2022/02/03 08:44:05;;;;;;;0.77;0.77;;;21.00;99.90;;;;;;5067225;28;20059;-57
2022/02/03 08:46:33;;;;;;;1.65;0.95;;;21.00;99.90;;;;;;5074654;28;20048;-61
2022/02/03 08:49:03;;;;;;;1.17;1.15;;;21.00;99.90;;;;;;5074149;28;20048;-60
2022/02/03 08:51:31;;;;;;;2.63;1.70;;;21.00;99.90;;;;;;5063042;28;20330;-62
2022/02/03 08:54:06;;;;;;;0.82;0.82;;;21.10;99.90;;;;;;5084924;28;20052;-62
2022/02/03 08:56:46;;;;;;;1.00;1.00;;;21.20;99.90;;;;;;5083346;28;20054;-59
2022/02/03 09:35:41;;;;;;;0.40;0.40;;;21.50;99.90;;;;;;5064935;28;20594;-62
2022/02/03 09:38:25;;;;;;;2.17;1.27;;;21.50;99.90;;;;;;5055591;28;20056;-62
2022/02/03 09:52:20;;;;;;;1.65;1.33;;;21.30;99.90;;;;;;5072932;28;20044;-60
2022/02/03 09:57:34;;;;;;;1.95;0.88;;;21.20;99.90;;;;;;5076138;28;20033;-60
2022/02/03 10:00:27;;;;;;;1.10;0.95;;;21.30;99.90;;;;;;5079833;28;20411;-61
2022/02/03 10:03:00;;;;;;;0.50;0.50;;;21.20;99.90;;;;;;5077090;28;20088;-62
2022/02/03 10:05:36;;;;;;;2.85;1.27;;;21.20;99.90;;;;;;5069704;28;20076;-61
2022/02/03 10:08:04;;;;;;;0.88;0.88;;;21.20;99.90;;;;;;5069724;28;20200;-59
2022/02/03 10:10:47;;;;;;;0.73;0.73;;;21.20;99.90;;;;;;5060436;28;20060;-61
2022/02/03 10:13:22;;;;;;;0.32;0.32;;;21.20;99.90;;;;;;5065407;28;20060;-62
2022/02/03 10:16:06;;;;;;;0.80;0.80;;;21.20;99.90;;;;;;5062237;28;20578;-61
2022/02/03 10:18:33;;;;;;;0.63;0.63;;;21.20;99.90;;;;;;5069868;28;20229;-59
2022/02/03 10:21:02;;;;;;;0.88;0.73;;;21.20;99.90;;;;;;5051905;28;20045;-63
2022/02/03 10:23:31;;;;;;;0.65;0.65;;;21.20;99.90;;;;;;5049717;28;20044;-59
2022/02/03 10:26:07;;;;;;;1.30;1.15;;;21.20;99.90;;;;;;5063086;28;20067;-59
2022/02/03 10:28:37;;;;;;;2.22;1.48;;;21.10;99.90;;;;;;5064460;28;20526;-59
2022/02/03 10:31:10;;;;;;;0.60;0.60;;;21.10;99.90;;;;;;5077418;28;20431;-58
2022/02/03 10:33:40;;;;;;;0.30;0.30;;;21.10;99.90;;;;;;5064916;28;20047;-59
2022/02/03 10:36:24;;;;;;;0.77;0.77;;;21.10;99.90;;;;;;5067076;28;20118;-60
2022/02/03 10:41:56;;;;;;;0.75;0.60;;;21.10;99.90;;;;;;5068200;28;20419;-62
2022/02/03 10:45:05;;;;;;;1.77;0.70;;;21.10;99.90;;;;;;5065125;28;20057;-61
2022/02/03 11:06:34;;;;;;;0.70;0.70;;;21.60;99.90;;;;;;5059624;28;20049;-60
2022/02/03 11:11:41;;;;;;;0.73;0.73;;;21.70;99.90;;;;;;5068514;28;20691;-59
2022/02/03 11:14:10;;;;;;;0.93;0.88;;;21.70;99.90;;;;;;5066661;28;20052;-59
2022/02/03 11:16:39;;;;;;;0.68;0.68;;;21.60;99.90;;;;;;5060861;28;20325;-63
2022/02/03 11:19:13;;;;;;;0.50;0.50;;;21.60;99.90;;;;;;5026921;28;20044;-60
2022/02/03 11:21:44;;;;;;;0.73;0.73;;;21.50;99.90;;;;;;5071266;28;20063;-61
2022/02/03 11:24:20;;;;;;;0.50;0.50;;;21.40;99.90;;;;;;5069852;28;20051;-61
2022/02/03 11:30:06;;;;;;;1.00;0.93;;;21.40;99.90;;;;;;5073098;28;20407;-60
2022/02/03 11:32:39;;;;;;;1.02;0.93;;;21.40;99.90;;;;;;5060715;28;20557;-59
2022/02/03 11:46:19;;;;;;;0.55;0.55;;;21.20;99.90;;;;;;5065236;28;20045;-60
2022/02/03 12:02:35;;;;;;;;;;;21.10;99.90;;;;;;5062942;28;20606;-61
2022/02/03 12:05:34;;;;;;;1.60;0.95;;;21.00;99.90;;;;;;5062897;28;19924;-60
2022/02/03 12:18:03;;;;;;;0.73;0.50;;;21.20;99.90;;;;;;5023884;28;20068;-57
2022/02/03 12:20:47;;;;;;;0.50;0.50;;;21.30;99.90;;;;;;5056375;28;20067;-58
2022/02/03 12:23:12;;;;;;;0.40;0.40;;;21.40;99.90;;;;;;5068215;28;20111;-62
2022/02/03 12:26:06;;;;;;;1.00;0.82;;;21.50;99.90;;;;;;5079391;28;20070;-60
2022/02/03 12:28:51;;;;;;;0.80;0.73;;;21.60;99.90;;;;;;5067245;28;20045;-59
2022/02/03 12:41:37;;;;;;;0.40;0.40;;;21.80;99.90;;;;;;5063246;28;20044;-61
2022/02/03 12:44:23;;;;;;;0.45;0.43;;;21.70;99.90;;;;;;5065338;28;20060;-58
2022/02/03 12:46:51;;;;;;;0.30;0.30;;;21.70;99.90;;;;;;5067743;28;20547;-61
2022/02/03 12:49:23;;;;;;;0.52;0.52;;;21.70;99.90;;;;;;5068576;28;20500;-62
2022/02/03 12:51:51;;;;;;;0.40;0.40;;;21.60;99.90;;;;;;5063077;28;20052;-60
2022/02/03 12:54:18;;;;;;;0.30;0.30;;;21.40;99.90;;;;;;5056506;28;20060;-61
2022/02/03 12:56:46;;;;;;;2.63;1.00;;;20.30;99.90;;;;;;5065286;28;20040;-57
2022/02/03 12:59:17;;;;;;;;;;;19.60;99.90;;;;;;5068265;28;20542;-59
2022/02/03 13:01:45;;;;;;;1.83;1.42;;;20.00;99.90;;;;;;5063419;28;19924;-59
2022/02/03 13:04:16;;;;;;;0.30;0.30;;;20.40;99.90;;;;;;5058727;28;20060;-58
2022/02/03 13:06:59;;;;;;;0.40;0.40;;;20.70;99.90;;;;;;5059811;28;20036;-60
2022/02/03 13:09:35;;;;;;;0.30;0.30;;;20.90;99.90;;;;;;5050559;28;20069;-58
2022/02/03 13:12:18;;;;;;;0.30;0.30;;;21.00;99.90;;;;;;5070306;28;20052;-67
2022/02/03 13:15:05;;;;;;;0.65;0.63;;;21.20;99.90;;;;;;5058452;28;20048;-58
2022/02/03 13:17:37;;;;;;;0.40;0.40;;;21.30;99.90;;;;;;5059845;28;20564;-59
2022/02/03 13:20:25;;;;;;;0.55;0.55;;;21.40;99.90;;;;;;5062434;28;20048;-58
2022/02/03 13:23:04;;;;;;;0.30;0.30;;;21.60;99.90;;;;;;5051082;28;20043;-57
2022/02/03 13:25:48;;;;;;;0.30;0.30;;;21.60;99.90;;;;;;5067590;28;20060;-60
2022/02/03 13:28:25;;;;;;;0.32;0.32;;;21.70;99.90;;;;;;5071702;28;20064;-61
2022/02/03 13:30:59;;;;;;;0.47;0.47;;;21.80;99.90;;;;;;5061667;28;20875;-60
2022/02/03 13:33:42;;;;;;;0.47;0.47;;;21.80;99.90;;;;;;5071277;28;20048;-60
2022/02/03 13:36:20;;;;;;;1.27;0.82;;;21.80;99.90;;;;;;5066099;28;20056;-59
2022/02/03 13:38:59;;;;;;;;;;;21.80;99.90;;;;;;5071579;28;20044;-62
2022/02/03 13:41:32;;;;;;;0.65;0.65;;;21.80;99.90;;;;;;5073972;28;19959;-61
2022/02/03 13:44:09;;;;;;;0.75;0.75;;;21.80;99.90;;;;;;5070180;28;20043;-60
2022/02/03 13:46:43;;;;;;;0.30;0.30;;;21.80;99.90;;;;;;5074182;28;20048;-62
2022/02/03 13:49:18;;;;;;;0.38;0.38;;;21.70;99.90;;;;;;5065786;28;20305;-60
2022/02/03 13:52:02;;;;;;;0.30;0.30;;;21.70;99.90;;;;;;5051911;28;20051;-59
2022/02/03 13:55:08;;;;;;;0.40;0.40;;;21.70;99.90;;;;;;5060278;28;20512;-59
2022/02/03 14:10:34;;;;;;;0.75;0.57;;;21.70;99.90;;;;;;5064876;28;20047;-59
2022/02/03 14:20:22;;;;;;;3.00;0.88;;;21.40;99.90;;;;;;5065044;28;20048;-58
2022/02/03 14:28:05;;;;;;;0.40;0.40;;;21.30;99.90;;;;;;5062974;28;20048;-59
2022/02/03 14:30:37;;;;;;;0.35;0.35;;;21.30;99.90;;;;;;5064607;28;20040;-59
2022/02/03 14:33:04;;;;;;;0.47;0.47;;;21.30;99.90;;;;;;5072078;28;20044;-60
2022/02/03 14:35:31;;;;;;;0.30;0.30;;;21.40;99.90;;;;;;5065593;28;20057;-59
2022/02/03 14:38:22;;;;;;;1.60;0.93;;;21.40;99.90;;;;;;5068831;28;20052;-59
2022/02/03 14:40:55;;;;;;;0.30;0.30;;;21.40;99.90;;;;;;5064713;28;20428;-60
2022/02/03 14:43:23;;;;;;;0.50;0.50;;;21.40;99.90;;;;;;5063737;28;20052;-58
2022/02/03 14:45:52;;;;;;;0.30;0.30;;;21.40;99.90;;;;;;5061320;28;20036;-59
2022/02/03 14:48:19;;;;;;;5.40;2.28;;;21.50;99.90;;;;;;5065382;28;20052;-58
2022/02/03 14:50:46;;;;;;;0.30;0.30;;;21.60;99.90;;;;;;5062781;28;20440;-59
2022/02/03 14:53:20;;;;;;;0.30;0.30;;;21.60;99.90;;;;;;5061415;28;20067;-57
2022/02/03 14:58:34;;;;;;;0.95;0.65;;;21.80;99.90;;;;;;5062483;28;20268;-56
2022/02/03 15:01:01;;;;;;;0.30;0.30;;;21.90;99.90;;;;;;5063532;28;20307;-61
2022/02/03 15:03:30;;;;;;;0.30;0.30;;;21.90;99.90;;;;;;5064431;28;20051;-60
2022/02/03 15:06:07;;;;;;;0.30;0.30;;;21.90;99.90;;;;;;5060607;28;20047;-62
2022/02/03 15:11:15;;;;;;;0.30;0.30;;;21.90;99.90;;;;;;5066611;28;20498;-62
2022/02/03 15:13:46;;;;;;;0.40;0.40;;;21.90;99.90;;;;;;5064454;28;20055;-62
2022/02/03 15:16:15;;;;;;;0.40;0.40;;;21.80;99.90;;;;;;5060012;28;20147;-60
2022/02/03 15:19:02;;;;;;;0.30;0.30;;;21.80;99.90;;;;;;5069644;28;20525;-61
2022/02/03 15:21:30;;;;;;;2.08;1.23;;;21.70;99.90;;;;;;5072238;28;20044;-60
2022/02/03 15:23:58;;;;;;;0.50;0.50;;;21.70;99.90;;;;;;5070834;28;20044;-63
2022/02/03 15:26:25;;;;;;;0.30;0.30;;;21.70;99.90;;;;;;5067699;28;20144;-61
2022/02/03 15:28:54;;;;;;;;;;;21.70;99.90;;;;;;5068782;28;20704;-61
2022/02/03 15:31:26;;;;;;;0.30;0.30;;;21.60;99.90;;;;;;5068226;28;20393;-62
2022/02/03 15:33:58;;;;;;;0.30;0.30;;;21.60;99.90;;;;;;5070284;28;20052;-61
2022/02/03 15:36:28;;;;;;;3.47;1.42;;;21.60;99.90;;;;;;5068452;28;20047;-62
2022/02/03 15:38:55;;;;;;;0.30;0.30;;;21.50;99.90;;;;;;5070309;28;20040;-62
2022/02/03 15:41:27;;;;;;;;;;;21.50;99.90;;;;;;5071232;28;20052;-60
2022/02/03 15:43:57;;;;;;;0.30;0.30;;;21.50;99.90;;;;;;5064178;28;19924;-60
2022/02/03 15:46:26;;;;;;;1.33;0.77;;;21.50;99.90;;;;;;5064018;28;20048;-60
2022/02/03 15:49:02;;;;;;;2.25;1.65;;;21.40;99.90;;;;;;5060201;28;20052;-61
2022/02/03 15:57:05;;;;;;;0.20;0.20;;;21.40;99.90;;;;;;5074130;28;20062;-62
2022/02/03 16:02:38;;;;;;;0.47;0.47;;;21.40;99.90;;;;;;5072079;28;20059;-62
2022/02/03 16:13:48;;;;;;;0.30;0.30;;;19.10;98.90;;;;;;5079904;28;20356;-63
2022/02/03 16:16:51;;;;;;;0.60;0.60;;;18.40;99.20;;;;;;5083832;28;20044;-65
2022/02/03 16:19:09;;;;;;;1.55;1.20;;;17.90;98.60;;;;;;5090838;28;20051;-63
2022/02/03 16:21:50;;;;;;;0.32;0.32;;;17.50;98.60;;;;;;5075466;28;20653;-63
2022/02/03 16:24:37;;;;;;;0.60;0.60;;;17.40;99.10;;;;;;5072921;28;20040;-62
2022/02/03 16:52:40;;;;;;;0.30;0.30;;;21.00;99.90;;;;;;5064318;28;20048;-63
2022/02/03 16:55:12;;;;;;;0.30;0.30;;;21.10;99.90;;;;;;5064914;28;20447;-61
2022/02/03 16:57:40;;;;;;;0.30;0.30;;;21.20;99.90;;;;;;5066174;28;20048;-62
2022/02/03 17:00:13;;;;;;;1.13;0.90;;;21.30;99.90;;;;;;5065474;28;20036;-62
2022/02/03 17:03:00;;;;;;;0.75;0.75;;;21.40;99.90;;;;;;5063467;28;20041;-60
2022/02/03 17:05:29;;;;;;;0.30;0.30;;;21.50;99.90;;;;;;5069522;28;20312;-61
2022/02/03 17:07:57;;;;;;;0.75;0.75;;;21.50;99.90;;;;;;5066799;28;20067;-62
2022/02/03 17:10:24;;;;;;;3.63;1.10;;;21.50;99.90;;;;;;5049544;28;20052;-62
2022/02/03 17:12:52;;;;;;;1.17;0.75;;;21.50;99.90;;;;;;5064489;28;20432;-62
2022/02/03 17:15:20;;;;;;;1.02;0.88;;;20.50;97.40;;;;;;5064335;28;20502;-60
2022/02/03 17:17:52;;;;;;;0.80;0.80;;;19.40;97.20;;;;;;5062254;28;20044;-60
2022/02/03 17:20:26;;;;;;;1.75;1.20;;;18.90;97.80;;;;;;5058034;28;20056;-60
2022/02/03 17:22:54;;;;;;;0.73;0.73;;;18.40;97.00;;;;;;5048013;28;20539;-60
2022/02/03 17:30:43;;;;;;;1.95;0.95;;;19.50;98.20;;;;;;5056632;28;19924;-62
2022/02/03 18:08:59;;;;;;;1.75;1.15;;;20.80;99.90;;;;;;5067296;28;20048;-61
2022/02/03 18:17:16;;;;;;;1.75;1.13;;;20.80;99.90;;;;;;5065866;28;20048;-62
2022/02/03 18:19:55;;;;;;;0.60;0.60;;;20.80;99.90;;;;;;5066595;28;20051;-63
2022/02/03 18:31:50;;;;;;;0.52;0.52;;;20.80;99.90;;;;;;5056018;28;20508;-61
2022/02/03 18:49:12;;;;;;;0.40;0.40;;;20.70;99.90;;;;;;5064524;28;20067;-62
2022/02/03 18:50:36;;;;;;;0.65;0.65;;;20.70;99.90;;;;;;5056530;28;20560;-60
2022/02/03 18:58:42;;;;;;;0.40;0.40;;;20.70;99.90;;;;;;5075546;28;20040;-62
2022/02/03 19:10:07;;;;;;;0.30;0.30;;;20.70;99.90;;;;;;5087157;28;20327;-60
2022/02/03 20:08:23;;;;;;;1.45;0.95;;;20.50;99.90;;;;;;5074822;28;20081;-61
2022/02/03 20:10:52;;;;;;;0.65;0.55;;;20.50;99.90;;;;;;5053995;28;20097;-62
2022/02/03 20:13:19;;;;;;;2.33;1.17;;;20.50;99.90;;;;;;5061707;28;20071;-63
2022/02/03 20:15:48;;;;;;;0.50;0.50;;;20.40;99.90;;;;;;5063327;28;20068;-59
2022/02/03 20:18:17;;;;;;;0.45;0.45;;;20.40;99.90;;;;;;5069965;28;20060;-64
2022/02/03 20:20:45;;;;;;;0.43;0.43;;;20.40;99.90;;;;;;5069710;28;20048;-62
2022/02/03 20:23:16;;;;;;;0.68;0.68;;;20.40;99.90;;;;;;5067424;28;20040;-62
2022/02/03 20:25:52;;;;;;;0.38;0.38;;;20.40;99.90;;;;;;5047472;28;20056;-60
2022/02/03 20:28:19;;;;;;;0.50;0.50;;;20.40;99.90;;;;;;5053655;28;20481;-62
2022/02/03 20:30:46;;;;;;;0.30;0.30;;;20.40;99.90;;;;;;5065375;28;20068;-62
2022/02/03 20:33:15;;;;;;;0.32;0.32;;;20.40;99.90;;;;;;5054991;28;20063;-62
2022/02/03 20:35:44;;;;;;;0.30;0.30;;;20.40;99.90;;;;;;5044331;28;20051;-63
2022/02/03 20:38:16;;;;;;;1.25;0.98;;;20.40;99.90;;;;;;5059451;28;20055;-63
2022/02/03 20:40:45;;;;;;;1.30;0.63;;;20.40;99.90;;;;;;5053873;28;20048;-62
2022/02/03 20:43:13;;;;;;;0.35;0.35;;;20.40;99.90;;;;;;5055994;28;20497;-63
2022/02/03 20:45:43;;;;;;;0.75;0.65;;;20.40;99.90;;;;;;5063279;28;20106;-60
2022/02/03 20:48:11;;;;;;;0.30;0.30;;;20.40;99.90;;;;;;5064489;28;20051;-61
2022/02/03 20:50:40;;;;;;;;;;;20.30;99.90;;;;;;5060466;28;20056;-61
2022/02/03 20:53:07;;;;;;;0.30;0.30;;;20.30;99.90;;;;;;5060480;28;19924;-61
2022/02/03 20:55:35;;;;;;;0.57;0.57;;;20.30;99.90;;;;;;5062073;28;20045;-66
2022/02/03 20:58:03;;;;;;;0.30;0.30;;;20.30;99.90;;;;;;5057107;28;20512;-62
2022/02/03 21:00:41;;;;;;;0.30;0.30;;;20.30;99.90;;;;;;5056662;28;20543;-62
2022/02/03 21:05:49;;;;;;;0.40;0.40;;;20.20;99.90;;;;;;5062316;28;20559;-63
2022/02/03 21:08:21;;;;;;;0.35;0.35;;;20.20;99.90;;;;;;5063351;28;20044;-63
2022/02/03 21:10:49;;;;;;;0.30;0.30;;;20.20;99.90;;;;;;5073879;28;20063;-62
2022/02/03 21:13:16;;;;;;;0.30;0.30;;;20.10;99.90;;;;;;5067302;28;20089;-63
2022/02/03 21:15:43;;;;;;;0.98;0.57;;;20.10;99.90;;;;;;5064081;28;20049;-63
2022/02/03 21:18:13;;;;;;;0.30;0.30;;;20.10;99.90;;;;;;5051471;28;20059;-63
2022/02/03 21:20:41;;;;;;;0.40;0.40;;;20.10;99.90;;;;;;5069313;28;20052;-63
2022/02/03 21:23:10;;;;;;;0.30;0.30;;;20.10;99.90;;;;;;5066888;28;20056;-63
2022/02/03 21:25:44;;;;;;;0.30;0.30;;;20.10;99.90;;;;;;5068127;28;20064;-61
2022/02/03 21:28:20;;;;;;;0.30;0.30;;;20.10;99.90;;;;;;5076236;28;20040;-59
2022/02/03 21:30:49;;;;;;;0.55;0.55;;;20.10;99.90;;;;;;5051199;28;20060;-63
2022/02/03 21:33:23;;;;;;;0.30;0.30;;;20.00;99.90;;;;;;5073667;28;20052;-62
2022/02/03 21:35:55;;;;;;;0.30;0.30;;;20.00;99.90;;;;;;5062759;28;20407;-63
2022/02/03 21:38:23;;;;;;;0.40;0.40;;;19.90;99.90;;;;;;5061130;28;20049;-62
2022/02/03 21:40:52;;;;;;;0.30;0.30;;;19.90;99.90;;;;;;5054332;28;20051;-63
2022/02/03 21:43:20;;;;;;;0.30;0.30;;;19.90;99.90;;;;;;5066188;28;20053;-62
2022/02/03 21:45:47;;;;;;;0.30;0.30;;;19.90;99.90;;;;;;5053130;28;20056;-61
2022/02/03 21:48:15;;;;;;;0.50;0.50;;;19.90;99.90;;;;;;5053609;28;20040;-62
2022/02/03 21:50:42;;;;;;;1.17;0.85;;;19.80;99.90;;;;;;5053893;28;20052;-62
2022/02/03 21:53:21;;;;;;;0.50;0.50;;;19.80;99.90;;;;;;5056160;28;20551;-62
2022/02/03 21:55:49;;;;;;;0.30;0.30;;;19.80;99.90;;;;;;5066297;28;20060;-63
2022/02/03 21:58:17;;;;;;;0.30;0.30;;;19.80;99.90;;;;;;5076125;28;20048;-63
2022/02/03 22:00:45;;;;;;;1.27;0.90;;;19.80;99.90;;;;;;5051202;28;20045;-64
2022/02/03 22:03:12;;;;;;;0.32;0.32;;;19.80;99.90;;;;;;5056621;28;20045;-61
2022/02/03 22:05:41;;;;;;;0.40;0.40;;;19.80;99.90;;;;;;5054406;28;20056;-63
2022/02/03 22:08:08;;;;;;;0.40;0.40;;;19.80;99.90;;;;;;5057069;28;20041;-60
2022/02/03 22:10:36;;;;;;;0.73;0.60;;;19.70;99.90;;;;;;5056746;28;20404;-62
2022/02/03 22:13:04;;;;;;;0.40;0.40;;;19.70;99.90;;;;;;5058583;28;20040;-61
2022/02/03 22:15:32;;;;;;;0.60;0.60;;;19.80;99.90;;;;;;5075151;28;20066;-62
2022/02/03 22:17:59;;;;;;;0.40;0.40;;;19.70;99.90;;;;;;5058647;28;20045;-63
2022/02/03 22:20:33;;;;;;;0.38;0.38;;;19.70;99.90;;;;;;5062343;28;20052;-62
2022/02/03 22:23:19;;;;;;;0.30;0.30;;;19.70;99.90;;;;;;5046769;28;20063;-63
2022/02/03 22:29:17;;;;;;;0.40;0.40;;;19.70;99.90;;;;;;5058860;28;20504;-62
2022/02/03 22:40:55;;;;;;;0.57;0.57;;;19.60;99.90;;;;;;5072448;28;20056;-61
2022/02/03 22:43:15;;;;;;;0.30;0.30;;;19.60;99.90;;;;;;5060298;28;20040;-61
2022/02/03 22:45:57;;;;;;;0.50;0.50;;;19.60;99.90;;;;;;5057669;28;20048;-63
2022/02/03 22:50:53;;;;;;;0.30;0.30;;;19.60;99.90;;;;;;5068557;28;20445;-61
2022/02/03 22:53:21;;;;;;;0.30;0.30;;;19.60;99.90;;;;;;5055325;28;20071;-62
2022/02/03 22:55:50;;;;;;;0.30;0.30;;;19.60;99.90;;;;;;5055763;28;20451;-62
2022/02/03 23:01:01;;;;;;;0.80;0.70;;;19.60;99.90;;;;;;5049239;28;20055;-59
2022/02/03 23:03:31;;;;;;;0.30;0.30;;;19.50;99.90;;;;;;5065859;28;20047;-61
2022/02/03 23:05:59;;;;;;;2.45;1.00;;;19.50;99.90;;;;;;5065065;28;20056;-61
2022/02/03 23:16:39;;;;;;;0.55;0.55;;;19.50;99.90;;;;;;5048357;28;20057;-63
2022/02/03 23:22:07;;;;;;;0.30;0.30;;;19.50;99.90;;;;;;5051079;28;20041;-62
2022/02/03 23:24:34;;;;;;;0.40;0.40;;;19.50;99.90;;;;;;5060806;28;20334;-63
2022/02/03 23:29:43;;;;;;;0.60;0.57;;;19.50;99.90;;;;;;5061866;28;20581;-62
2022/02/03 23:32:11;;;;;;;0.50;0.50;;;19.60;99.90;;;;;;5052111;28;20053;-63
2022/02/03 23:34:42;;;;;;;0.30;0.30;;;19.60;99.90;;;;;;5053084;28;20256;-62
2022/02/03 23:37:09;;;;;;;1.23;0.70;;;19.60;99.90;;;;;;5060665;28;20493;-62
2022/02/03 23:39:51;;;;;;;1.00;0.80;;;19.50;99.90;;;;;;5049238;28;20056;-63
2022/02/03 23:43:21;;;;;;;0.65;0.50;;;19.50;99.90;;;;;;5060445;28;20049;-61
2022/02/03 23:45:44;;;;;;;0.30;0.30;;;19.50;99.90;;;;;;5060633;28;20089;-61
